Time;durP1;ratioP1;P1;durP2;ratioP2;P2;SDS_P1;SDS_P2;PMS_P1;PMS_P2;Temp;Humidity;BMP_temperature;BMP_pressure;BME280_temperature;BME280_humidity;BME280_pressure;Samples;Min_cycle;Max_cycle;Signal;HPM_P1;HPM_P2
2023/09/12 04:38:55;;;;;;;;;;;;;;;10.20;86.10;100386.85;107108;1272;22510;-44
2023/09/12 04:41:23;;;;;;;;;;;;;;;10.29;86.35;100387.08;107830;1274;22513;-45
2023/09/12 04:43:51;;;;;;;;;;;;;;;10.38;86.41;100384.66;108346;1272;22633;-45
2023/09/12 04:46:19;;;;;;;;;;;;;;;10.46;86.46;100383.98;107306;1280;22531;-45
2023/09/12 04:48:47;;;;;;;;;;;;;;;10.51;86.33;100392.02;107979;1280;24200;-39
2023/09/12 04:51:14;;;;;;;;;;;;;;;10.54;86.61;100390.96;107144;1279;24697;-38
2023/09/12 04:53:42;;;;;;;;;;;;;;;10.58;86.77;100390.80;107486;1279;22764;-37
2023/09/12 04:56:10;;;;;;;;;;;;;;;10.62;86.97;100390.98;107368;1274;22521;-38
2023/09/12 04:58:37;;;;;;;;;;;;;;;10.68;87.24;100392.20;108609;1280;25265;-38
2023/09/12 05:01:05;;;;;;;;;;;;;;;10.75;87.29;100390.65;108183;1258;22527;-39
2023/09/12 05:03:33;;;;;;;;;;;;;;;10.84;87.39;100394.84;108378;1278;24279;-38
2023/09/12 05:06:01;;;;;;;;;;;;;;;10.94;87.16;100391.17;108475;1280;22529;-38
2023/09/12 05:08:28;;;;;;;;;;;;;;;11.03;87.27;100393.27;109817;1274;23160;-38
2023/09/12 05:10:56;;;;;;;;;;;;;;;11.14;87.12;100390.48;109544;1278;22527;-38
2023/09/12 05:13:23;;;;;;;;;;;;;;;11.30;87.36;100388.54;109278;1276;22922;-38
2023/09/12 05:15:51;;;;;;;;;;;;;;;11.47;87.13;100392.34;109054;1277;25331;-38
2023/09/12 05:18:19;;;;;;;;;;;;;;;11.63;86.80;100394.41;109682;1274;22887;-38
2023/09/12 05:20:46;;;;;;;;;;;;;;;11.80;86.42;100396.81;109416;1277;22498;-41
2023/09/12 05:23:14;;;;;;;;;;;;;;;11.99;86.01;100396.05;109763;1273;22417;-45
2023/09/12 05:25:41;;;;;;;;;;;;;;;12.27;85.92;100396.79;109684;1272;23020;-45
2023/09/12 05:28:09;;;;;;;;;;;;;;;12.56;84.77;100397.32;109594;1272;24004;-46
2023/09/12 05:30:37;;;;;;;;;;;;;;;12.71;83.99;100400.20;109362;1277;23146;-39
2023/09/12 05:33:05;;;;;;;;;;;;;;;12.84;83.41;100401.52;108703;1275;22638;-45
2023/09/12 05:35:32;;;;;;;;;;;;;;;12.98;82.99;100400.70;109682;1272;22422;-47
2023/09/12 05:38:00;;;;;;;;;;;;;;;13.09;82.49;100399.03;109273;1262;25392;-39
2023/09/12 05:40:27;;;;;;;;;;;;;;;13.23;82.25;100397.35;109700;1277;23735;-40
2023/09/12 05:42:55;;;;;;;;;;;;;;;13.40;82.03;100397.03;109720;1275;22406;-39
2023/09/12 05:45:23;;;;;;;;;;;;;;;13.58;81.53;100397.73;109378;1279;187281;-38
2023/09/12 05:47:51;;;;;;;;;;;;;;;13.75;81.07;100397.35;109608;1278;22456;-38
2023/09/12 05:50:19;;;;;;;;;;;;;;;13.93;80.59;100393.46;109735;1279;23128;-38
2023/09/12 05:52:47;;;;;;;;;;;;;;;14.08;79.90;100391.85;109333;1276;23261;-45
2023/09/12 05:55:15;;;;;;;;;;;;;;;14.25;79.32;100394.98;108384;1278;25205;-39
2023/09/12 05:57:43;;;;;;;;;;;;;;;14.46;78.50;100399.09;109559;1277;22569;-44
2023/09/12 06:00:11;;;;;;;;;;;;;;;14.66;77.71;100396.89;109760;1277;22416;-44
2023/09/12 06:02:40;;;;;;;;;;;;;;;14.86;76.96;100396.20;109757;1272;22937;-40
2023/09/12 06:10:42;;;;;;;;;;;;;;;15.47;74.73;100388.30;105649;1308;545071;-45
2023/09/12 06:38:15;;;;;;;;;;;;;;;17.70;65.96;100391.34;109106;1275;23900;-38
2023/09/12 06:41:31;;;;;;;;;;;;;;;17.96;64.45;100391.14;108810;1280;22502;-38
2023/09/12 06:44:11;;;;;;;;;;;;;;;18.15;64.04;100396.08;108790;1279;22486;-38
2023/09/12 06:46:56;;;;;;;;;;;;;;;18.36;62.91;100398.08;109470;1282;23256;-46
2023/09/12 06:49:23;;;;;;;;;;;;;;;18.54;61.95;100400.16;110150;1266;22922;-48
2023/09/12 06:51:51;;;;;;;;;;;;;;;18.73;60.84;100398.70;109709;1264;24199;-47
2023/09/12 06:54:18;;;;;;;;;;;;;;;18.90;59.74;100400.30;109084;1272;22526;-39
2023/09/12 06:56:45;;;;;;;;;;;;;;;19.05;59.04;100398.56;110041;1266;23020;-45
2023/09/12 06:59:12;;;;;;;;;;;;;;;19.21;58.66;100400.15;109130;1266;22621;-46
2023/09/12 07:01:39;;;;;;;;;;;;;;;19.36;57.99;100396.61;110055;1266;23510;-46
2023/09/12 07:04:05;;;;;;;;;;;;;;;19.52;57.29;100398.20;108951;1266;23117;-39
2023/09/12 07:06:34;;;;;;;;;;;;;;;19.69;56.81;100397.98;109917;1272;23141;-47
2023/09/12 07:09:00;;;;;;;;;;;;;;;19.86;56.64;100394.52;109862;1269;22526;-45
2023/09/12 07:11:27;;;;;;;;;;;;;;;20.00;55.92;100397.39;110035;1269;22467;-46
2023/09/12 07:14:00;;;;;;;;;;;;;;;20.11;54.95;100404.04;109889;1269;22528;-38
2023/09/12 07:16:33;;;;;;;;;;;;;;;20.21;54.58;100399.41;109739;1272;23302;-39
2023/09/12 07:19:03;;;;;;;;;;;;;;;20.36;54.03;100402.04;109908;1275;22465;-46
2023/09/12 07:21:34;;;;;;;;;;;;;;;20.46;53.20;100402.36;109601;1266;23188;-39
2023/09/12 07:24:05;;;;;;;;;;;;;;;20.58;52.94;100399.97;110104;1270;22945;-40
2023/09/12 07:26:33;;;;;;;;;;;;;;;20.74;52.76;100402.86;110016;1266;22490;-40
2023/09/12 07:29:04;;;;;;;;;;;;;;;20.90;52.31;100402.21;109744;1273;23151;-38
2023/09/12 07:31:30;;;;;;;;;;;;;;;21.05;52.08;100399.13;110187;1269;23163;-39
2023/09/12 07:33:57;;;;;;;;;;;;;;;21.16;51.60;100397.04;109074;1266;22514;-40
2023/09/12 07:36:24;;;;;;;;;;;;;;;21.27;51.19;100397.14;110032;1266;23734;-39
2023/09/12 07:38:51;;;;;;;;;;;;;;;21.38;50.68;100393.15;109901;1272;22565;-47
2023/09/12 07:41:19;;;;;;;;;;;;;;;21.48;50.08;100391.84;110162;1264;22526;-47
2023/09/12 07:43:45;;;;;;;;;;;;;;;21.57;49.99;100393.19;110035;1272;23643;-38
2023/09/12 07:46:12;;;;;;;;;;;;;;;21.68;49.67;100390.56;110190;1269;22524;-46
2023/09/12 07:48:40;;;;;;;;;;;;;;;21.78;49.17;100389.77;108929;1271;22557;-39
2023/09/12 07:51:14;;;;;;;;;;;;;;;21.87;49.33;100388.85;109033;1269;26452;-47
2023/09/12 07:53:42;;;;;;;;;;;;;;;21.99;48.95;100383.85;109880;1266;22526;-45
2023/09/12 07:56:10;;;;;;;;;;;;;;;22.12;48.68;100385.25;108683;1273;25256;-46
2023/09/12 07:58:37;;;;;;;;;;;;;;;22.23;47.97;100383.48;108206;1275;22634;-46
2023/09/12 08:01:14;;;;;;;;;;;;;;;22.32;47.55;100383.05;108563;1273;22530;-45
2023/09/12 08:04:04;;;;;;;;;;;;;;;22.45;46.97;100384.75;109041;1270;22609;-47
2023/09/12 08:06:36;;;;;;;;;;;;;;;22.60;46.76;100384.19;110014;1269;22580;-46
2023/09/12 08:09:21;;;;;;;;;;;;;;;22.74;46.57;100384.79;109976;1273;23094;-47
2023/09/12 08:11:48;;;;;;;;;;;;;;;22.84;46.17;100382.15;110082;1266;23763;-46
2023/09/12 08:14:15;;;;;;;;;;;;;;;22.95;45.78;100383.41;109987;1270;22444;-46
2023/09/12 08:16:43;;;;;;;;;;;;;;;23.05;45.57;100385.05;109936;1270;23265;-48
2023/09/12 08:19:10;;;;;;;;;;;;;;;23.14;45.63;100384.06;110063;1270;23064;-40
2023/09/12 08:21:41;;;;;;;;;;;;;;;23.27;45.47;100383.75;110118;1266;22607;-40
2023/09/12 08:24:08;;;;;;;;;;;;;;;23.43;44.91;100380.62;110061;1265;22409;-39
2023/09/12 08:26:34;;;;;;;;;;;;;;;23.53;44.38;100389.69;109961;1266;22523;-46
2023/09/12 08:29:03;;;;;;;;;;;;;;;23.66;44.15;100386.56;110034;1266;22565;-48
2023/09/12 08:31:31;;;;;;;;;;;;;;;23.77;43.77;100386.66;109513;1276;22845;-39
2023/09/12 08:33:58;;;;;;;;;;;;;;;23.91;43.48;100385.23;109463;1259;24665;-47
2023/09/12 08:36:26;;;;;;;;;;;;;;;24.06;43.49;100383.67;109186;1272;22488;-39
2023/09/12 08:38:54;;;;;;;;;;;;;;;24.22;42.98;100382.65;109556;1271;22493;-46
2023/09/12 08:41:23;;;;;;;;;;;;;;;24.36;42.49;100379.20;109577;1266;22967;-39
2023/09/12 08:43:50;;;;;;;;;;;;;;;24.43;42.12;100376.01;110133;1270;23266;-46
2023/09/12 08:46:17;;;;;;;;;;;;;;;24.49;42.32;100373.36;109191;1266;22505;-46
2023/09/12 08:48:44;;;;;;;;;;;;;;;24.59;41.93;100374.52;110076;1270;22489;-46
2023/09/12 08:51:12;;;;;;;;;;;;;;;24.71;41.57;100375.98;110173;1266;23835;-46
2023/09/12 08:53:38;;;;;;;;;;;;;;;24.80;41.15;100376.36;109397;1276;22546;-46
2023/09/12 08:56:05;;;;;;;;;;;;;;;24.88;40.50;100374.66;109470;1267;22602;-40
2023/09/12 08:58:32;;;;;;;;;;;;;;;24.96;40.20;100371.54;109395;1263;22495;-47
2023/09/12 09:00:59;;;;;;;;;;;;;;;25.03;39.97;100372.02;110139;1275;22511;-47
2023/09/12 09:03:26;;;;;;;;;;;;;;;25.09;39.61;100368.61;110144;1266;22427;-40
2023/09/12 09:05:53;;;;;;;;;;;;;;;25.19;39.11;100366.08;109609;1266;22501;-49
2023/09/12 09:08:20;;;;;;;;;;;;;;;25.29;38.80;100362.27;110039;1266;22507;-47
2023/09/12 09:10:57;;;;;;;;;;;;;;;25.31;38.68;100360.52;109882;1266;22519;-40
2023/09/12 09:13:25;;;;;;;;;;;;;;;25.34;38.17;100359.13;109455;1275;23370;-46
2023/09/12 09:16:11;;;;;;;;;;;;;;;25.31;38.36;100361.27;109998;1272;23329;-40
2023/09/12 09:18:54;;;;;;;;;;;;;;;25.27;38.33;100361.48;109687;1274;23770;-41
2023/09/12 09:21:26;;;;;;;;;;;;;;;25.24;37.84;100356.29;109389;1269;25925;-48
2023/09/12 09:23:55;;;;;;;;;;;;;;;25.13;37.67;100355.57;110203;1260;22462;-46
2023/09/12 09:26:21;;;;;;;;;;;;;;;24.98;38.30;100361.06;110079;1267;24353;-46
2023/09/12 09:29:20;;;;;;;;;;;;;;;24.86;38.33;100357.48;110139;1266;22441;-47
2023/09/12 09:31:47;;;;;;;;;;;;;;;24.74;38.11;100356.38;109555;1276;22510;-47
2023/09/12 09:34:15;;;;;;;;;;;;;;;24.63;37.94;100359.34;109777;1273;23189;-47
2023/09/12 09:36:48;;;;;;;;;;;;;;;24.58;37.39;100361.60;109177;1263;22544;-47
2023/09/12 09:39:15;;;;;;;;;;;;;;;24.53;37.37;100359.90;109667;1259;22718;-39
2023/09/12 09:41:42;;;;;;;;;;;;;;;24.52;37.28;100356.05;109746;1275;22925;-46
2023/09/12 09:44:12;;;;;;;;;;;;;;;24.50;37.41;100353.85;109967;1272;22496;-39
2023/09/12 09:46:39;;;;;;;;;;;;;;;24.52;37.17;100351.05;109360;1270;22521;-40
2023/09/12 09:49:07;;;;;;;;;;;;;;;24.53;37.35;100346.73;109732;1269;22500;-47
2023/09/12 09:51:33;;;;;;;;;;;;;;;24.57;37.80;100347.39;109585;1268;22493;-47
2023/09/12 09:54:00;;;;;;;;;;;;;;;24.69;37.70;100348.10;109058;1270;22522;-40
2023/09/12 09:56:28;;;;;;;;;;;;;;;24.74;37.08;100346.42;109957;1269;22435;-47
2023/09/12 09:58:55;;;;;;;;;;;;;;;24.72;37.59;100346.50;109668;1271;23302;-40
2023/09/12 10:01:30;;;;;;;;;;;;;;;24.74;37.11;100344.09;109984;1272;23245;-38
2023/09/12 10:03:59;;;;;;;;;;;;;;;24.77;37.32;100337.14;109628;1272;23390;-39
2023/09/12 10:06:27;;;;;;;;;;;;;;;24.84;37.22;100338.30;109438;1272;22502;-40
2023/09/12 10:08:56;;;;;;;;;;;;;;;24.98;36.95;100344.26;109721;1272;22510;-40
2023/09/12 10:11:34;;;;;;;;;;;;;;;25.18;36.95;100340.80;109158;1271;23293;-46
2023/09/12 10:14:06;;;;;;;;;;;;;;;25.39;36.35;100342.19;109141;1273;23941;-39
2023/09/12 10:16:33;;;;;;;;;;;;;;;25.66;36.02;100339.33;109196;1272;22702;-39
2023/09/12 10:19:13;;;;;;;;;;;;;;;26.04;35.52;100336.72;109145;1273;22631;-40
2023/09/12 10:21:48;;;;;;;;;;;;;;;26.44;35.17;100338.30;109774;1260;22964;-40
2023/09/12 10:24:45;;;;;;;;;;;;;;;26.86;34.37;100335.70;109785;1277;22442;-38
2023/09/12 10:27:30;;;;;;;;;;;;;;;27.19;33.13;100333.20;109630;1272;22586;-39
2023/09/12 10:29:59;;;;;;;;;;;;;;;27.11;33.07;100332.63;109918;1272;22451;-44
2023/09/12 10:32:29;;;;;;;;;;;;;;;27.27;33.08;100336.17;109737;1278;22969;-40
2023/09/12 10:34:57;;;;;;;;;;;;;;;27.53;32.82;100331.52;109775;1271;22986;-46
2023/09/12 10:37:25;;;;;;;;;;;;;;;27.88;32.80;100335.52;109792;1268;22544;-47
2023/09/12 10:39:55;;;;;;;;;;;;;;;28.29;32.58;100330.21;109818;1269;23824;-47
2023/09/12 10:42:21;;;;;;;;;;;;;;;28.86;32.25;100326.54;109789;1273;22444;-40
2023/09/12 10:44:48;;;;;;;;;;;;;;;29.26;30.80;100324.69;109860;1262;22456;-40
2023/09/12 10:47:15;;;;;;;;;;;;;;;29.68;30.35;100320.95;109950;1272;22559;-40
2023/09/12 10:49:44;;;;;;;;;;;;;;;30.14;29.61;100318.15;109862;1271;22481;-48
2023/09/12 10:52:23;;;;;;;;;;;;;;;30.69;29.04;100316.70;109961;1271;22537;-47
2023/09/12 10:54:50;;;;;;;;;;;;;;;31.19;28.12;100308.85;109919;1272;22451;-48
2023/09/12 10:57:16;;;;;;;;;;;;;;;31.43;26.28;100310.59;109934;1272;22707;-46
2023/09/12 10:59:58;;;;;;;;;;;;;;;31.38;26.04;100311.54;109333;1268;22627;-47
2023/09/12 11:02:29;;;;;;;;;;;;;;;30.81;26.22;100311.20;109536;1268;22534;-46
2023/09/12 11:04:59;;;;;;;;;;;;;;;30.29;27.30;100307.18;109027;1277;22923;-39
2023/09/12 11:07:29;;;;;;;;;;;;;;;30.05;27.34;100304.86;109167;1272;24408;-47
2023/09/12 11:10:15;;;;;;;;;;;;;;;29.81;27.40;100300.64;109585;1272;23501;-45
2023/09/12 11:17:22;;;;;;;;;;;;;;;29.25;27.77;100305.42;108764;1272;22468;-40
2023/09/12 11:20:14;;;;;;;;;;;;;;;28.91;28.33;100298.30;108632;1281;22519;-46
2023/09/12 11:22:44;;;;;;;;;;;;;;;28.69;28.45;100300.36;108642;1276;25603;-46
2023/09/12 11:25:22;;;;;;;;;;;;;;;28.48;28.39;100305.36;108218;1285;22550;-45
2023/09/12 11:27:52;;;;;;;;;;;;;;;28.25;28.33;100302.17;108078;1276;23381;-47
2023/09/12 11:30:34;;;;;;;;;;;;;;;27.93;28.58;100305.17;107314;1278;25930;-39
2023/09/12 11:33:14;;;;;;;;;;;;;;;27.57;29.30;100304.88;108515;1278;22515;-46
2023/09/12 11:35:43;;;;;;;;;;;;;;;27.32;29.47;100297.52;108188;1284;22516;-46
2023/09/12 11:38:26;;;;;;;;;;;;;;;27.11;29.85;100295.90;108433;1282;22560;-47
2023/09/12 11:41:02;;;;;;;;;;;;;;;26.93;29.78;100296.41;108313;1284;22518;-40
2023/09/12 11:43:29;;;;;;;;;;;;;;;26.81;30.11;100296.01;108662;1274;22572;-47
2023/09/12 11:45:56;;;;;;;;;;;;;;;26.73;29.89;100293.48;108834;1278;22705;-42
2023/09/12 11:48:23;;;;;;;;;;;;;;;26.73;30.10;100289.73;108607;1284;22525;-40
2023/09/12 11:50:54;;;;;;;;;;;;;;;26.72;29.37;100283.16;109287;1278;22577;-48
2023/09/12 11:53:25;;;;;;;;;;;;;;;26.64;29.31;100290.65;108961;1280;22522;-46
2023/09/12 11:55:54;;;;;;;;;;;;;;;26.56;29.32;100285.33;109274;1276;22510;-47
2023/09/12 11:58:21;;;;;;;;;;;;;;;26.54;29.69;100286.52;110008;1264;22458;-46
2023/09/12 12:00:52;;;;;;;;;;;;;;;26.47;29.46;100283.61;110013;1277;22465;-47
2023/09/12 12:03:19;;;;;;;;;;;;;;;26.35;29.57;100283.08;109590;1278;22571;-40
2023/09/12 12:05:46;;;;;;;;;;;;;;;26.23;29.71;100284.40;109938;1272;23857;-40
2023/09/12 12:08:14;;;;;;;;;;;;;;;26.14;29.97;100282.52;109729;1273;22527;-47
2023/09/12 12:11:00;;;;;;;;;;;;;;;26.10;29.99;100274.58;109830;1272;22476;-47
2023/09/12 12:13:30;;;;;;;;;;;;;;;26.16;30.13;100272.19;109874;1269;22441;-46
2023/09/12 12:15:58;;;;;;;;;;;;;;;26.34;29.88;100271.36;109696;1278;22511;-40
2023/09/12 12:18:26;;;;;;;;;;;;;;;26.50;30.06;100271.61;109926;1269;22455;-40
2023/09/12 12:20:53;;;;;;;;;;;;;;;26.61;29.80;100267.63;109923;1272;22461;-40
2023/09/12 12:23:19;;;;;;;;;;;;;;;26.72;29.75;100266.02;109870;1273;22475;-39
2023/09/12 12:25:46;;;;;;;;;;;;;;;26.77;29.57;100260.27;109962;1278;22451;-46
2023/09/12 12:28:13;;;;;;;;;;;;;;;26.81;29.61;100260.94;109806;1278;22478;-39
2023/09/12 12:30:40;;;;;;;;;;;;;;;26.85;29.49;100258.16;109856;1268;22479;-39
2023/09/12 12:33:08;;;;;;;;;;;;;;;26.93;29.48;100253.66;109883;1278;22473;-39
2023/09/12 12:36:01;;;;;;;;;;;;;;;27.00;29.25;100256.34;109934;1274;23106;-39
2023/09/12 12:38:31;;;;;;;;;;;;;;;26.90;28.74;100252.77;109802;1276;23733;-39
2023/09/12 12:40:58;;;;;;;;;;;;;;;26.78;28.82;100251.10;109923;1278;22507;-39
2023/09/12 12:43:27;;;;;;;;;;;;;;;26.72;29.11;100248.80;109918;1274;22493;-39
2023/09/12 12:45:54;;;;;;;;;;;;;;;26.69;29.27;100249.20;110072;1259;22524;-40
2023/09/12 12:48:31;;;;;;;;;;;;;;;26.69;28.99;100250.09;109232;1275;22609;-40
2023/09/12 12:50:58;;;;;;;;;;;;;;;26.71;28.94;100245.65;109394;1269;22579;-40
2023/09/12 12:53:40;;;;;;;;;;;;;;;26.75;28.98;100241.23;110080;1268;23183;-40
2023/09/12 12:56:11;;;;;;;;;;;;;;;26.83;29.16;100239.52;110110;1268;23238;-39
2023/09/12 12:58:38;;;;;;;;;;;;;;;26.88;29.42;100239.55;110067;1279;23199;-40
2023/09/12 13:01:05;;;;;;;;;;;;;;;26.85;29.61;100242.77;110167;1269;22541;-40
2023/09/12 13:03:31;;;;;;;;;;;;;;;26.76;29.29;100240.32;110180;1266;23087;-40
2023/09/12 13:05:58;;;;;;;;;;;;;;;26.69;29.48;100235.95;110184;1267;22534;-46
2023/09/12 13:08:25;;;;;;;;;;;;;;;26.68;29.94;100237.84;110106;1273;22433;-39
2023/09/12 13:10:52;;;;;;;;;;;;;;;26.63;29.81;100239.04;110067;1278;22477;-40
2023/09/12 13:13:22;;;;;;;;;;;;;;;26.55;29.59;100237.46;110112;1278;23242;-40
2023/09/12 13:15:48;;;;;;;;;;;;;;;26.46;29.78;100238.79;110116;1278;22888;-39
2023/09/12 13:18:15;;;;;;;;;;;;;;;26.39;29.73;100237.77;110130;1275;22537;-39
2023/09/12 13:20:42;;;;;;;;;;;;;;;26.30;30.10;100238.55;110144;1269;22474;-39
2023/09/12 13:23:08;;;;;;;;;;;;;;;26.18;30.57;100239.51;110190;1263;22435;-40
2023/09/12 13:25:35;;;;;;;;;;;;;;;26.08;30.96;100240.38;110138;1266;22498;-47
2023/09/12 13:28:02;;;;;;;;;;;;;;;25.97;31.38;100241.27;110161;1271;22530;-40
2023/09/12 13:30:30;;;;;;;;;;;;;;;25.84;31.19;100238.55;110018;1276;23067;-39
2023/09/12 13:32:57;;;;;;;;;;;;;;;25.81;31.18;100239.07;109867;1277;22504;-40
2023/09/12 13:35:23;;;;;;;;;;;;;;;25.87;31.20;100241.75;107359;1268;25300;-40
2023/09/12 13:37:54;;;;;;;;;;;;;;;25.96;30.87;100238.44;108670;1269;22534;-38
2023/09/12 13:40:21;;;;;;;;;;;;;;;26.11;30.85;100238.77;109692;1269;22541;-39
2023/09/12 13:42:48;;;;;;;;;;;;;;;26.26;30.78;100239.54;110193;1278;22442;-45
2023/09/12 13:45:15;;;;;;;;;;;;;;;26.36;30.58;100237.98;110219;1269;23254;-39
2023/09/12 13:47:42;;;;;;;;;;;;;;;26.42;30.50;100233.48;109511;1278;22491;-47
2023/09/12 13:50:09;;;;;;;;;;;;;;;26.46;30.32;100231.11;110235;1278;22518;-39
2023/09/12 13:52:36;;;;;;;;;;;;;;;26.41;30.36;100235.30;110218;1275;23261;-47
2023/09/12 13:55:03;;;;;;;;;;;;;;;26.29;30.12;100232.68;108159;1279;22534;-40
2023/09/12 13:57:31;;;;;;;;;;;;;;;26.32;30.36;100235.58;108784;1259;22504;-48
2023/09/12 14:00:00;;;;;;;;;;;;;;;26.46;30.41;100231.20;109255;1273;22526;-46
2023/09/12 14:02:26;;;;;;;;;;;;;;;26.55;30.25;100230.45;109092;1278;25408;-47
2023/09/12 14:04:53;;;;;;;;;;;;;;;26.63;30.25;100232.11;107295;1266;25479;-46
2023/09/12 14:07:36;;;;;;;;;;;;;;;26.78;30.09;100234.98;107125;1278;22508;-39
2023/09/12 14:10:04;;;;;;;;;;;;;;;26.98;29.81;100231.81;107107;1266;22508;-40
2023/09/12 14:12:32;;;;;;;;;;;;;;;27.32;29.20;100233.78;107292;1269;22620;-39
2023/09/12 14:14:58;;;;;;;;;;;;;;;27.43;29.08;100233.69;107856;1267;23185;-39
2023/09/12 14:17:35;;;;;;;;;;;;;;;27.39;28.81;100230.06;107900;1269;22669;-40
2023/09/12 14:20:03;;;;;;;;;;;;;;;27.37;29.25;100233.26;107442;1279;23317;-38
